Time;durP1;ratioP1;P1;durP2;ratioP2;P2;SDS_P1;SDS_P2;PMS_P1;PMS_P2;Temp;Humidity;BMP_temperature;BMP_pressure;BME280_temperature;BME280_humidity;BME280_pressure;Samples;Min_cycle;Max_cycle;Signal;HPM_P1;HPM_P2
2021/08/12 00:01:01;;;;;;;7.82;4.40;;;20.00;74.70;;;19.15;71.08;96412.38;4938168;28;20538;-69
2021/08/12 00:03:27;;;;;;;9.88;4.93;;;20.00;74.80;;;19.10;71.82;96406.13;4933913;28;20048;-69
2021/08/12 00:05:53;;;;;;;8.93;4.78;;;19.80;74.90;;;19.05;70.89;96401.50;4937589;28;20109;-69
2021/08/12 00:08:19;;;;;;;7.60;4.90;;;19.80;75.10;;;19.04;71.34;96396.41;4938464;28;20035;-70
2021/08/12 00:10:50;;;;;;;10.18;4.82;;;19.80;75.20;;;19.02;72.46;96401.16;4941922;28;20039;-69
2021/08/12 00:13:17;;;;;;;8.20;4.95;;;19.80;75.30;;;18.98;71.92;96396.28;4934851;28;20414;-69
2021/08/12 00:15:42;;;;;;;6.85;4.30;;;19.80;75.20;;;19.00;71.26;96400.56;4948094;28;20043;-68
2021/08/12 00:18:08;;;;;;;10.50;5.15;;;19.90;75.00;;;18.96;72.28;96406.38;4931138;28;20036;-69
2021/08/12 00:20:34;;;;;;;17.02;5.45;;;19.80;75.20;;;18.94;71.52;96408.47;4950624;28;20514;-69
2021/08/12 00:23:00;;;;;;;6.53;5.07;;;19.70;75.00;;;18.88;72.20;96404.06;4951544;28;20113;-69
2021/08/12 00:25:25;;;;;;;7.57;4.63;;;19.70;74.90;;;18.84;71.94;96405.59;4964503;28;20389;-68
2021/08/12 00:27:51;;;;;;;10.05;5.30;;;19.60;75.30;;;18.78;71.98;96397.69;4933897;28;20083;-69
2021/08/12 00:30:17;;;;;;;12.90;5.32;;;19.60;75.50;;;18.76;71.92;96403.25;4966305;28;20201;-68
2021/08/12 00:32:42;;;;;;;14.00;5.72;;;19.60;75.60;;;18.74;72.52;96407.19;4948362;28;20503;-69
2021/08/12 00:35:09;;;;;;;8.30;5.15;;;19.60;75.60;;;18.72;72.44;96415.44;4949804;28;20035;-68
2021/08/12 00:37:35;;;;;;;9.13;5.15;;;19.60;75.70;;;18.72;73.32;96414.63;4958232;28;20380;-68
2021/08/12 00:40:01;;;;;;;9.27;5.35;;;19.60;75.80;;;18.67;72.75;96418.00;4946037;28;20032;-69
2021/08/12 00:42:27;;;;;;;9.82;5.78;;;19.50;75.80;;;18.64;72.28;96419.25;4949553;28;20090;-68
2021/08/12 00:44:53;;;;;;;7.35;5.10;;;19.50;76.00;;;18.62;73.01;96418.69;4936752;29;20474;-70
2021/08/12 00:47:19;;;;;;;9.40;5.32;;;19.50;76.00;;;18.59;72.70;96410.31;4962861;28;20051;-68
2021/08/12 00:49:45;;;;;;;9.68;5.68;;;19.40;76.20;;;18.57;72.74;96409.75;4923601;29;20060;-69
2021/08/12 00:52:11;;;;;;;8.27;5.15;;;19.40;76.10;;;18.55;73.61;96414.47;4932245;28;20059;-69
2021/08/12 00:54:39;;;;;;;9.35;5.25;;;19.40;76.10;;;18.51;73.29;96413.31;4945413;28;20035;-69
2021/08/12 00:57:05;;;;;;;8.13;4.47;;;19.40;76.20;;;18.48;73.35;96413.78;4949250;28;20035;-69
2021/08/12 00:59:36;;;;;;;10.15;5.30;;;19.40;76.10;;;18.50;73.54;96422.34;4966170;28;20034;-69
2021/08/12 01:02:05;;;;;;;;;;;19.40;75.80;;;18.46;74.22;96422.00;4935852;28;20608;-68
2021/08/12 01:04:30;;;;;;;7.57;4.68;;;19.30;75.90;;;18.40;72.74;96427.44;4946973;28;19925;-68
2021/08/12 01:07:08;;;;;;;7.72;4.90;;;19.20;76.20;;;18.39;74.66;96431.16;4939116;28;20039;-69
2021/08/12 01:10:04;;;;;;;7.55;5.40;;;19.30;76.30;;;18.35;75.29;96426.28;4948234;28;20051;-68
2021/08/12 01:12:41;;;;;;;9.18;4.78;;;19.20;76.40;;;18.31;74.79;96424.28;4964515;28;20086;-69
2021/08/12 01:15:08;;;;;;;7.72;4.93;;;19.10;76.60;;;18.27;74.17;96431.94;4957127;28;20047;-69
2021/08/12 01:17:45;;;;;;;9.55;5.00;;;19.10;76.80;;;18.27;74.74;96429.28;4941496;29;20145;-68
2021/08/12 01:20:47;;;;;;;7.88;5.28;;;19.10;76.80;;;18.26;75.56;96427.66;4930558;28;20070;-68
2021/08/12 01:23:13;;;;;;;9.60;5.20;;;19.20;76.60;;;18.22;73.57;96426.50;4960944;28;20043;-68
2021/08/12 01:25:39;;;;;;;8.65;4.90;;;19.10;76.70;;;18.21;73.67;96430.19;4948422;28;20079;-68
2021/08/12 01:28:20;;;;;;;8.02;4.85;;;19.10;76.90;;;18.20;74.97;96425.91;4940025;28;20039;-68
2021/08/12 01:31:25;;;;;;;8.48;5.38;;;19.10;76.90;;;18.16;76.00;96422.09;4948908;28;20023;-69
2021/08/12 01:33:57;;;;;;;6.93;5.20;;;19.00;77.30;;;18.10;75.44;96415.00;4965472;28;20039;-69
2021/08/12 01:36:23;;;;;;;9.00;5.00;;;18.90;77.50;;;18.07;74.44;96412.78;4933900;29;20078;-68
2021/08/12 01:38:49;;;;;;;9.40;5.03;;;19.00;77.40;;;18.06;75.13;96411.97;4949875;28;20114;-69
2021/08/12 01:41:15;;;;;;;11.10;5.20;;;19.00;77.40;;;18.07;74.10;96412.78;4931381;29;20040;-68
2021/08/12 01:43:40;;;;;;;8.70;5.13;;;19.00;77.00;;;18.06;74.65;96413.81;4949040;28;20031;-69
2021/08/12 01:46:06;;;;;;;9.07;5.30;;;19.00;77.00;;;18.05;74.87;96423.66;4972263;28;20047;-69
2021/08/12 01:48:32;;;;;;;8.00;4.80;;;19.00;76.90;;;18.03;74.95;96415.09;4947598;28;20028;-68
2021/08/12 01:50:58;;;;;;;8.27;5.55;;;18.90;77.00;;;18.01;73.84;96430.50;4945147;28;20487;-69
2021/08/12 01:53:24;;;;;;;9.40;5.57;;;18.90;77.10;;;17.97;75.00;96423.19;4951715;28;20032;-69
2021/08/12 01:55:50;;;;;;;8.80;5.38;;;18.80;77.40;;;17.94;74.66;96418.31;4966545;28;20456;-69
2021/08/12 01:58:17;;;;;;;9.00;4.95;;;18.80;77.50;;;17.91;74.79;96426.78;4966658;28;20051;-69
2021/08/12 02:00:46;;;;;;;11.57;5.53;;;18.80;77.50;;;17.88;74.88;96425.38;4949015;28;20032;-69
2021/08/12 02:03:15;;;;;;;10.55;5.70;;;18.80;77.60;;;17.85;75.69;96425.81;4967063;28;20521;-68
2021/08/12 02:05:43;;;;;;;8.18;4.90;;;18.80;77.60;;;17.83;75.08;96427.88;4950067;28;20086;-70
2021/08/12 02:08:09;;;;;;;6.95;5.20;;;18.70;77.70;;;17.79;75.00;96431.22;4964669;28;20070;-68
2021/08/12 02:10:35;;;;;;;6.35;5.05;;;18.70;77.70;;;17.77;75.43;96423.47;4936254;29;20499;-69
2021/08/12 02:13:02;;;;;;;7.13;5.20;;;18.70;77.70;;;17.73;75.77;96428.44;4952256;28;20094;-69
2021/08/12 02:15:27;;;;;;;8.13;5.25;;;18.60;77.90;;;17.72;75.38;96420.69;4941238;28;20043;-69
2021/08/12 02:17:53;;;;;;;9.90;5.45;;;18.60;77.80;;;17.72;75.46;96416.16;4930561;28;20122;-69
2021/08/12 02:20:19;;;;;;;6.63;5.50;;;18.70;77.80;;;17.71;75.70;96424.38;4952474;28;20055;-68
2021/08/12 02:23:06;;;;;;;8.20;5.60;;;18.70;77.80;;;17.69;76.70;96413.97;4937222;28;20106;-69
2021/08/12 02:25:36;;;;;;;11.23;5.30;;;18.60;77.90;;;17.65;75.72;96412.78;4951212;28;20027;-69
2021/08/12 02:28:08;;;;;;;8.05;5.32;;;18.60;77.90;;;17.61;76.63;96402.78;4917760;28;20071;-68
2021/08/12 02:30:36;;;;;;;9.55;5.53;;;18.60;77.80;;;17.61;76.20;96403.59;4950885;28;20027;-69
2021/08/12 02:33:04;;;;;;;9.80;5.18;;;18.60;77.90;;;17.61;76.02;96400.94;4949446;28;20055;-69
2021/08/12 02:35:30;;;;;;;9.73;4.90;;;18.60;77.90;;;17.60;76.31;96411.81;4950744;28;20047;-68
2021/08/12 02:37:56;;;;;;;7.65;5.32;;;18.60;77.90;;;17.57;75.89;96410.41;4932645;28;20039;-69
2021/08/12 02:40:22;;;;;;;10.35;5.60;;;18.60;78.00;;;17.55;75.96;96412.47;4933232;28;20054;-68
2021/08/12 02:42:48;;;;;;;6.43;5.38;;;18.50;78.30;;;17.54;76.08;96408.19;4952495;28;20510;-69
2021/08/12 02:45:13;;;;;;;6.25;5.57;;;18.50;78.10;;;17.53;76.49;96406.56;4948779;28;20504;-69
2021/08/12 02:47:40;;;;;;;9.82;6.40;;;18.50;78.10;;;17.51;76.42;96413.97;4948927;28;20050;-69
2021/08/12 02:50:06;;;;;;;6.78;5.18;;;18.60;78.20;;;17.47;76.36;96412.81;4948252;28;20388;-69
2021/08/12 02:52:35;;;;;;;9.20;6.10;;;18.50;78.20;;;17.45;76.61;96420.19;4952463;28;20020;-68
2021/08/12 02:55:00;;;;;;;8.88;5.93;;;18.50;78.10;;;17.42;75.91;96420.63;4963523;28;20030;-69
2021/08/12 02:57:26;;;;;;;7.88;5.82;;;18.40;78.50;;;17.38;76.29;96422.09;4938357;29;20408;-69
2021/08/12 02:59:52;;;;;;;10.10;5.50;;;18.30;78.70;;;17.34;76.63;96412.94;4950806;28;20534;-69
2021/08/12 03:02:18;;;;;;;8.23;6.18;;;18.30;78.70;;;17.31;76.17;96413.41;4937171;28;20036;-67
2021/08/12 03:04:44;;;;;;;7.68;5.38;;;18.20;78.90;;;17.31;76.30;96413.41;4932293;29;20445;-67
2021/08/12 03:07:10;;;;;;;7.35;5.15;;;18.30;78.60;;;17.28;77.11;96413.84;4946502;28;20138;-68
2021/08/12 03:09:35;;;;;;;17.10;5.70;;;18.30;78.50;;;17.27;76.29;96412.22;4966269;28;20414;-67
2021/08/12 03:12:01;;;;;;;7.72;5.13;;;18.30;78.40;;;17.26;76.64;96418.59;4937599;28;20046;-68
2021/08/12 03:14:30;;;;;;;9.43;5.22;;;18.30;78.40;;;17.21;76.60;96415.78;4944626;28;20554;-68
2021/08/12 03:16:59;;;;;;;6.30;5.00;;;18.10;78.50;;;17.19;76.51;96425.81;4932555;29;20036;-68
2021/08/12 03:19:25;;;;;;;8.70;5.13;;;18.10;78.70;;;17.13;76.92;96425.66;4929073;29;20050;-67
2021/08/12 03:22:07;;;;;;;6.28;5.00;;;18.10;78.90;;;17.12;77.43;96421.38;4928665;29;20063;-69
2021/08/12 03:24:44;;;;;;;8.57;5.40;;;18.10;78.90;;;17.10;76.64;96427.97;4943232;28;20456;-68
2021/08/12 03:27:13;;;;;;;7.43;5.20;;;18.10;78.80;;;17.08;76.59;96428.19;4952060;28;20047;-67
2021/08/12 03:29:44;;;;;;;7.07;5.28;;;18.10;78.80;;;17.08;77.37;96424.72;4945165;28;20134;-68
2021/08/12 03:32:10;;;;;;;10.65;5.53;;;18.10;78.70;;;17.05;76.76;96419.84;4947271;28;20427;-67
2021/08/12 03:34:36;;;;;;;5.72;4.78;;;18.10;78.90;;;17.02;77.01;96425.59;4952032;28;20039;-68
2021/08/12 03:37:02;;;;;;;8.55;5.40;;;18.00;78.70;;;17.02;76.57;96423.75;4942664;28;20086;-68
2021/08/12 03:39:27;;;;;;;9.32;5.10;;;18.10;78.80;;;16.98;77.07;96425.25;4916237;29;20043;-68
2021/08/12 03:41:53;;;;;;;9.00;4.95;;;18.00;78.80;;;16.95;77.05;96415.03;4932752;28;20040;-67
2021/08/12 03:44:19;;;;;;;9.10;5.65;;;18.00;79.00;;;16.96;76.98;96421.97;4952944;28;20043;-67
2021/08/12 03:46:45;;;;;;;8.32;5.80;;;18.00;78.70;;;16.94;77.34;96425.88;4970695;28;20030;-68
2021/08/12 03:49:11;;;;;;;6.90;5.22;;;18.00;79.00;;;16.89;77.22;96413.25;4953042;28;20167;-68
2021/08/12 03:51:36;;;;;;;8.63;5.18;;;17.80;79.10;;;16.88;77.21;96424.94;4959191;28;20043;-68
2021/08/12 03:54:02;;;;;;;7.55;5.35;;;17.90;79.40;;;16.87;77.06;96419.84;4936893;28;20585;-67
2021/08/12 03:56:28;;;;;;;11.05;5.82;;;17.80;79.30;;;16.82;77.68;96415.19;4942008;29;20055;-68
2021/08/12 03:58:54;;;;;;;10.70;5.72;;;17.80;79.40;;;16.80;78.05;96417.25;4931430;28;20032;-67
2021/08/12 04:01:20;;;;;;;8.95;5.90;;;17.70;79.70;;;16.77;77.83;96412.38;4953379;28;20043;-67
2021/08/12 04:03:45;;;;;;;9.18;6.15;;;17.70;79.80;;;16.78;78.31;96419.31;4916367;28;20035;-68
2021/08/12 04:06:12;;;;;;;8.27;5.60;;;17.80;79.70;;;16.79;78.10;96419.09;4942022;28;22912;-68
2021/08/12 04:08:38;;;;;;;8.35;5.90;;;17.90;79.50;;;16.78;77.93;96414.00;4945346;28;20122;-69
2021/08/12 04:11:03;;;;;;;7.82;5.88;;;17.80;79.50;;;16.77;78.57;96410.53;4954792;28;20031;-71
2021/08/12 04:13:29;;;;;;;11.90;6.30;;;17.90;79.50;;;16.77;77.67;96407.06;4937652;28;20047;-66
2021/08/12 04:15:55;;;;;;;8.57;5.50;;;17.80;79.60;;;16.78;78.26;96408.69;4947206;28;20031;-74
2021/08/12 04:18:21;;;;;;;9.38;6.40;;;17.80;79.40;;;16.77;78.16;96407.06;4949183;28;20042;-68
2021/08/12 04:20:47;;;;;;;8.70;6.38;;;17.80;79.50;;;16.78;77.95;96414.00;4943561;28;20407;-71
2021/08/12 04:23:13;;;;;;;10.00;5.57;;;17.80;79.50;;;16.78;78.12;96414.00;4952852;28;20043;-69
2021/08/12 04:25:38;;;;;;;7.60;5.88;;;17.80;79.60;;;16.75;78.11;96412.59;4964692;28;20051;-68
2021/08/12 04:28:05;;;;;;;8.95;6.45;;;17.80;79.60;;;16.76;77.92;96405.44;4949361;28;20667;-68
2021/08/12 04:30:31;;;;;;;8.43;5.97;;;17.80;79.70;;;16.76;78.42;96410.75;4917282;29;20051;-68
2021/08/12 04:32:57;;;;;;;9.73;6.22;;;17.80;79.80;;;16.76;78.90;96405.44;4965641;28;20488;-68
2021/08/12 04:35:22;;;;;;;8.35;5.78;;;17.90;79.60;;;16.76;78.60;96411.56;4962874;28;20040;-68
2021/08/12 04:37:49;;;;;;;9.63;6.20;;;17.90;79.80;;;16.77;78.23;96412.38;4947740;28;20130;-69
2021/08/12 04:40:16;;;;;;;10.68;5.93;;;17.80;79.50;;;16.75;78.39;96411.78;4950389;28;20035;-68
2021/08/12 04:42:43;;;;;;;7.85;6.93;;;17.90;79.40;;;16.76;78.58;96416.88;4962630;28;20492;-68
2021/08/12 04:45:09;;;;;;;9.02;6.45;;;17.80;79.30;;;16.75;78.43;96417.91;4948846;28;20027;-68
2021/08/12 04:47:35;;;;;;;10.82;6.10;;;17.90;79.50;;;16.74;79.00;96415.44;4954881;28;20036;-68
2021/08/12 04:50:01;;;;;;;9.15;6.00;;;17.90;79.50;;;16.77;78.43;96423.00;4953378;28;20043;-69
2021/08/12 04:52:27;;;;;;;10.30;6.63;;;17.90;79.70;;;16.79;78.51;96426.25;4934658;28;20039;-67
2021/08/12 04:54:52;;;;;;;8.18;5.82;;;17.90;79.70;;;16.80;79.01;96422.56;4952501;28;20038;-68
2021/08/12 04:57:18;;;;;;;7.30;5.85;;;18.00;79.60;;;16.80;78.72;96427.88;4946198;28;20372;-68
2021/08/12 04:59:44;;;;;;;10.15;5.40;;;18.00;79.70;;;16.81;78.94;96429.50;4956177;28;20531;-67
2021/08/12 05:02:09;;;;;;;8.85;5.57;;;18.00;79.60;;;16.81;78.87;96429.50;4939001;28;20063;-70
2021/08/12 05:04:35;;;;;;;8.20;5.97;;;18.00;79.40;;;16.83;79.15;96427.44;4931635;29;20070;-70
2021/08/12 05:07:01;;;;;;;8.98;5.43;;;18.00;79.10;;;16.85;78.34;96430.69;4952175;28;20098;-71
2021/08/12 05:09:26;;;;;;;6.55;5.60;;;18.10;79.00;;;16.88;78.83;96435.56;4946290;28;20035;-70
2021/08/12 05:11:52;;;;;;;9.65;5.50;;;18.10;79.10;;;16.91;79.13;96435.09;4937641;28;20086;-66
2021/08/12 05:14:18;;;;;;;8.68;5.15;;;18.10;79.20;;;16.95;78.59;96435.47;4938244;28;20047;-66
2021/08/12 05:16:44;;;;;;;10.45;8.13;;;18.20;79.20;;;16.97;78.80;96428.91;4931373;29;20036;-67
2021/08/12 05:19:09;;;;;;;15.30;10.10;;;18.30;79.40;;;17.01;79.53;96429.31;4931574;28;20460;-66
2021/08/12 05:21:35;;;;;;;14.13;9.02;;;18.30;79.50;;;17.07;79.15;96431.06;4965395;28;20503;-66
2021/08/12 05:24:01;;;;;;;10.13;5.82;;;18.40;79.60;;;17.11;79.20;96425.09;4951318;28;20040;-70
2021/08/12 05:26:26;;;;;;;42.38;31.73;;;18.50;79.20;;;17.17;79.62;96426.03;4932963;28;20735;-74
2021/08/12 05:28:53;;;;;;;66.40;46.25;;;18.50;79.30;;;17.23;79.83;96429.66;4940906;28;20134;-73
2021/08/12 05:31:19;;;;;;;28.58;18.80;;;18.60;79.80;;;17.33;80.12;96429.94;4917629;29;20115;-72
2021/08/12 05:33:44;;;;;;;11.68;7.90;;;18.70;80.00;;;17.41;80.06;96432.28;4918284;29;20115;-63
2021/08/12 05:36:10;;;;;;;14.38;7.97;;;18.80;80.10;;;17.50;80.19;96438.94;4940924;28;20495;-71
2021/08/12 05:38:36;;;;;;;16.77;8.65;;;18.90;80.30;;;17.58;80.47;96429.84;4960908;28;20032;-69
2021/08/12 05:41:01;;;;;;;23.75;12.88;;;19.10;80.20;;;17.69;80.76;96434.44;4951420;28;21536;-71
2021/08/12 05:43:27;;;;;;;16.00;9.88;;;19.10;80.10;;;17.78;80.72;96437.59;4937093;28;20036;-72
2021/08/12 05:45:53;;;;;;;19.27;9.90;;;19.30;79.70;;;17.89;80.12;96436.84;4950625;28;20035;-72
2021/08/12 05:48:20;;;;;;;12.95;9.70;;;19.40;79.20;;;18.00;80.15;96449.34;4953214;28;20032;-72
2021/08/12 05:50:46;;;;;;;13.35;9.07;;;19.60;78.80;;;18.08;80.19;96443.69;4943596;28;20032;-74
2021/08/12 05:53:16;;;;;;;12.95;8.68;;;19.60;78.40;;;18.20;80.52;96433.91;4924119;29;20028;-75
2021/08/12 05:55:42;;;;;;;15.38;8.15;;;19.80;78.00;;;18.32;80.00;96445.38;4937098;29;20035;-73
2021/08/12 05:58:08;;;;;;;17.13;8.35;;;20.00;77.70;;;18.44;78.95;96442.72;4954642;28;20047;-72
2021/08/12 06:00:33;;;;;;;11.63;8.10;;;20.10;77.30;;;18.53;79.93;96437.88;4938068;28;20082;-72
2021/08/12 06:03:10;;;;;;;12.48;8.32;;;20.20;77.00;;;18.67;79.58;96445.44;4904742;29;20047;-70
2021/08/12 06:05:36;;;;;;;16.67;11.90;;;20.50;76.90;;;18.78;78.55;96446.47;4970480;28;20034;-74
2021/08/12 06:08:08;;;;;;;14.57;8.20;;;20.60;76.10;;;18.88;78.98;96440.59;4953805;28;20039;-70
2021/08/12 06:10:34;;;;;;;13.38;8.60;;;20.60;75.30;;;18.94;77.94;96429.78;4954530;28;20034;-68
2021/08/12 06:13:00;;;;;;;13.35;9.57;;;20.70;74.90;;;19.05;77.70;96436.16;4951522;28;20114;-69
2021/08/12 06:15:26;;;;;;;17.30;10.27;;;20.90;75.10;;;19.18;77.71;96435.09;4947151;28;20068;-68
2021/08/12 06:17:52;;;;;;;14.35;8.95;;;21.10;75.20;;;19.30;77.51;96441.22;4921257;29;20039;-72
2021/08/12 06:20:18;;;;;;;17.65;8.48;;;21.20;74.50;;;19.43;77.82;96437.47;4919720;29;20078;-72
2021/08/12 06:22:49;;;;;;;16.95;9.05;;;21.40;74.00;;;19.56;76.45;96443.38;4935772;28;20407;-70
2021/08/12 06:25:15;;;;;;;;;;;21.60;73.20;;;19.69;77.03;96442.31;4931499;29;20032;-69
2021/08/12 06:27:40;;;;;;;16.17;10.13;;;21.70;72.70;;;19.83;76.28;96445.50;4947654;28;19926;-70
2021/08/12 06:30:07;;;;;;;17.60;9.93;;;21.90;72.00;;;19.98;75.72;96445.78;4941396;28;20066;-73
2021/08/12 06:32:33;;;;;;;25.98;19.83;;;22.10;71.40;;;20.13;75.55;96448.69;4935602;29;20139;-69
2021/08/12 06:35:00;;;;;;;18.23;11.10;;;22.10;70.70;;;20.29;75.48;96452.47;4959044;28;20039;-70
2021/08/12 06:37:26;;;;;;;13.38;8.23;;;22.30;70.30;;;20.46;74.25;96441.81;4948350;28;20036;-71
2021/08/12 06:39:51;;;;;;;13.32;7.53;;;22.50;69.30;;;20.59;74.35;96446.81;4957334;28;20066;-68
2021/08/12 06:42:17;;;;;;;11.85;7.65;;;22.60;69.00;;;20.71;73.46;96447.56;4936471;28;20514;-69
2021/08/12 06:44:43;;;;;;;11.13;7.50;;;22.70;68.60;;;20.85;72.44;96455.25;4964014;28;20043;-70
2021/08/12 06:47:09;;;;;;;14.25;7.18;;;22.80;67.80;;;20.94;72.58;96451.91;4950718;28;20183;-71
2021/08/12 06:49:34;;;;;;;14.68;12.07;;;22.90;68.10;;;21.05;72.11;96460.91;4949052;28;20155;-70
2021/08/12 06:52:00;;;;;;;15.95;8.27;;;23.00;67.40;;;21.16;71.37;96453.81;4931210;28;20134;-71
2021/08/12 06:54:27;;;;;;;13.32;7.97;;;23.10;66.50;;;21.27;71.29;96453.72;4915712;28;20039;-68
2021/08/12 06:56:52;;;;;;;11.68;7.25;;;23.20;67.00;;;21.38;71.58;96455.47;4949658;28;20046;-73
2021/08/12 06:59:18;;;;;;;13.60;8.00;;;23.40;66.50;;;21.50;71.07;96457.22;4962997;28;20036;-71
2021/08/12 07:01:44;;;;;;;26.75;15.60;;;23.50;65.20;;;21.61;70.01;96465.13;4934805;29;20042;-71
2021/08/12 07:04:09;;;;;;;13.48;9.93;;;23.70;64.00;;;21.75;69.22;96470.94;4950514;28;20459;-70
2021/08/12 07:06:38;;;;;;;17.70;10.10;;;23.90;63.30;;;21.90;69.06;96478.31;4935600;28;20024;-69
2021/08/12 07:09:04;;;;;;;15.77;11.63;;;24.00;63.50;;;22.06;68.93;96473.97;4930879;28;20065;-72
2021/08/12 07:11:30;;;;;;;19.13;11.10;;;24.20;62.80;;;22.18;69.10;96471.91;4948021;28;20178;-73
2021/08/12 07:13:56;;;;;;;18.63;11.27;;;24.30;62.50;;;22.36;68.63;96470.75;4950465;28;20110;-71
2021/08/12 07:16:21;;;;;;;13.48;8.80;;;24.60;62.30;;;22.52;68.08;96469.84;4967687;28;20082;-73
2021/08/12 07:18:47;;;;;;;10.75;7.50;;;24.70;62.00;;;22.69;67.42;96464.34;4942582;28;20051;-73
2021/08/12 07:21:20;;;;;;;10.50;8.02;;;24.90;62.00;;;22.79;65.79;96470.59;4937159;28;20043;-73
2021/08/12 07:23:46;;;;;;;10.52;7.80;;;24.80;61.50;;;22.87;66.60;96472.03;4947331;28;20039;-74
2021/08/12 07:26:13;;;;;;;14.43;9.15;;;24.90;60.60;;;22.92;66.84;96474.75;4951024;28;20039;-73
2021/08/12 07:28:43;;;;;;;14.05;8.55;;;24.80;60.90;;;22.93;65.31;96465.63;4919616;29;20063;-74
2021/08/12 07:31:14;;;;;;;13.15;7.75;;;24.70;61.30;;;22.97;66.26;96466.72;4966928;28;20027;-71
2021/08/12 07:33:39;;;;;;;;;;;24.80;62.00;;;23.03;65.84;96468.38;4920755;29;20101;-70
2021/08/12 07:36:05;;;;;;;10.75;7.90;;;25.00;62.30;;;23.08;65.97;96471.06;4966404;28;20393;-74
2021/08/12 07:38:31;;;;;;;10.25;8.15;;;25.10;60.60;;;23.15;65.65;96469.00;4961636;28;20399;-74
2021/08/12 07:40:58;;;;;;;11.70;8.00;;;25.10;61.30;;;23.13;65.56;96471.13;4940857;28;20536;-72
2021/08/12 07:43:24;;;;;;;11.73;8.10;;;25.00;61.20;;;23.14;65.78;96467.38;4950895;28;20130;-73
2021/08/12 07:45:49;;;;;;;13.98;8.90;;;25.00;60.80;;;23.16;65.34;96462.56;4919976;29;20031;-73
2021/08/12 07:48:15;;;;;;;17.13;10.43;;;25.10;61.20;;;23.29;66.22;96466.63;4909635;28;20031;-74
2021/08/12 07:50:41;;;;;;;12.98;8.80;;;25.50;61.30;;;23.44;65.97;96458.66;4950618;28;20032;-74
2021/08/12 07:53:07;;;;;;;13.68;8.93;;;25.60;61.40;;;23.58;65.67;96452.88;4966690;28;20031;-74
2021/08/12 07:55:34;;;;;;;11.80;7.40;;;25.70;59.10;;;23.72;65.70;96462.84;4950294;28;20081;-77
2021/08/12 07:58:00;;;;;;;14.10;8.70;;;26.10;60.20;;;23.96;64.22;96459.69;4915469;28;20039;-73
2021/08/12 08:00:25;;;;;;;12.00;7.63;;;26.40;57.50;;;24.16;63.97;96467.78;4951963;28;20063;-73
2021/08/12 08:02:51;;;;;;;15.48;7.80;;;26.60;57.40;;;24.37;64.16;96474.84;4947128;28;20071;-73
2021/08/12 08:05:18;;;;;;;11.77;7.50;;;26.90;56.60;;;24.61;62.75;96463.56;4960467;28;20090;-70
2021/08/12 08:07:45;;;;;;;10.15;7.57;;;27.20;54.60;;;24.85;62.08;96464.63;4933131;28;20035;-74
2021/08/12 08:10:11;;;;;;;16.58;8.88;;;27.50;53.70;;;25.01;61.72;96468.16;4946645;28;20039;-73
2021/08/12 08:12:38;;;;;;;21.63;14.93;;;27.50;53.50;;;25.14;61.27;96462.22;4916555;29;20024;-71
2021/08/12 08:15:04;;;;;;;23.15;17.05;;;27.70;54.00;;;25.34;61.74;96464.03;4947486;28;20036;-72
2021/08/12 08:17:30;;;;;;;13.15;7.70;;;28.00;54.10;;;25.55;61.26;96468.28;4950489;28;20511;-71
2021/08/12 08:19:57;;;;;;;12.27;7.30;;;28.40;53.40;;;25.77;60.98;96459.84;4945997;28;20046;-72
2021/08/12 08:22:24;;;;;;;9.82;6.88;;;28.60;52.90;;;26.01;60.93;96468.09;4934896;28;20036;-72
2021/08/12 08:24:49;;;;;;;9.90;7.43;;;28.90;53.10;;;26.21;59.59;96456.38;4946711;28;20107;-72
2021/08/12 08:27:15;;;;;;;11.35;6.93;;;29.00;51.00;;;26.44;59.62;96463.00;4937293;28;20082;-70
2021/08/12 08:29:41;;;;;;;11.88;7.10;;;29.40;49.90;;;26.65;58.45;96464.47;4963630;28;20039;-74
2021/08/12 08:32:08;;;;;;;13.77;8.77;;;29.60;49.40;;;26.88;58.76;96462.91;4949054;28;20500;-70
2021/08/12 08:34:33;;;;;;;20.08;16.90;;;30.00;50.00;;;27.06;58.43;96464.94;4931929;28;20494;-72
2021/08/12 08:36:59;;;;;;;13.55;7.47;;;30.10;48.80;;;27.25;56.97;96464.22;4933797;29;20027;-76
2021/08/12 08:39:25;;;;;;;10.38;7.07;;;30.20;47.70;;;27.39;56.84;96457.88;4948560;28;20090;-71
2021/08/12 08:41:51;;;;;;;10.25;6.43;;;30.40;46.60;;;27.53;55.98;96462.56;4930912;28;20543;-71
2021/08/12 08:44:18;;;;;;;11.85;6.50;;;30.50;47.10;;;27.75;56.34;96454.75;4931574;28;20071;-73
2021/08/12 08:46:44;;;;;;;11.90;7.13;;;30.90;47.70;;;27.98;56.25;96456.59;4930897;28;20035;-73
2021/08/12 08:49:11;;;;;;;12.60;7.18;;;31.10;46.30;;;28.18;55.23;96458.22;4943794;28;20128;-72
2021/08/12 08:51:37;;;;;;;11.57;6.43;;;31.20;44.90;;;28.35;54.80;96447.72;4947864;28;20066;-74
2021/08/12 08:54:03;;;;;;;11.13;6.97;;;31.50;44.90;;;28.54;54.17;96449.63;4948649;28;20389;-66
2021/08/12 08:56:28;;;;;;;10.68;6.25;;;31.50;44.30;;;28.67;53.88;96449.66;4948537;28;20035;-72
2021/08/12 08:58:54;;;;;;;10.57;6.75;;;31.60;44.50;;;28.75;53.42;96445.47;4933240;28;20447;-75
2021/08/12 09:01:20;;;;;;;10.02;6.70;;;31.40;45.10;;;28.84;52.88;96437.47;4949617;28;20035;-71
2021/08/12 09:03:45;;;;;;;9.30;7.13;;;31.60;45.40;;;28.95;52.52;96444.31;4965492;28;20035;-73
2021/08/12 09:06:13;;;;;;;13.68;6.75;;;31.70;44.50;;;29.10;52.32;96444.06;4943096;28;20091;-69
2021/08/12 09:08:39;;;;;;;10.93;6.68;;;32.00;44.40;;;29.28;52.41;96443.19;4934802;28;20020;-70
2021/08/12 09:11:04;;;;;;;20.88;8.75;;;32.30;44.40;;;29.53;51.62;96441.13;4949568;28;20444;-71
2021/08/12 09:13:30;;;;;;;22.25;8.07;;;32.50;43.20;;;29.70;51.12;96444.03;4903279;29;20036;-70
2021/08/12 09:15:56;;;;;;;14.98;6.97;;;32.60;42.60;;;29.85;51.10;96435.53;4944253;28;20443;-71
2021/08/12 09:18:24;;;;;;;10.35;6.72;;;32.80;43.50;;;30.03;49.69;96435.72;4953577;28;20179;-71
2021/08/12 09:20:51;;;;;;;10.75;6.38;;;33.10;42.20;;;30.23;49.98;96437.22;4952069;28;20032;-73
2021/08/12 09:23:28;;;;;;;15.38;7.00;;;33.30;41.40;;;30.51;46.97;96435.19;4937227;28;20094;-73
2021/08/12 09:25:54;;;;;;;9.30;6.88;;;33.80;41.10;;;30.66;49.19;96432.16;4968824;28;20411;-72
2021/08/12 09:28:26;;;;;;;12.23;7.28;;;33.60;39.60;;;30.83;47.06;96436.88;4965799;28;20495;-73
2021/08/12 09:31:00;;;;;;;11.43;6.75;;;33.90;39.60;;;31.03;46.55;96437.16;4968243;28;20023;-73
2021/08/12 09:33:27;;;;;;;9.50;6.38;;;34.10;39.40;;;31.13;47.33;96430.66;4967676;28;20123;-73
2021/08/12 09:35:53;;;;;;;11.23;6.38;;;34.00;39.90;;;31.20;46.92;96430.22;4949929;28;20084;-75
2021/08/12 09:38:19;;;;;;;12.98;6.75;;;34.00;40.60;;;31.28;46.67;96426.75;4953242;28;20039;-74
2021/08/12 09:40:52;;;;;;;9.23;6.30;;;34.10;39.90;;;31.39;44.81;96425.34;4949603;28;20031;-72
2021/08/12 09:43:18;;;;;;;15.43;7.68;;;34.40;39.30;;;31.49;46.40;96425.09;4948797;28;20066;-74
2021/08/12 09:45:43;;;;;;;13.95;6.78;;;34.60;38.20;;;31.64;46.08;96424.63;4956751;28;20388;-74
2021/08/12 09:48:16;;;;;;;13.90;6.70;;;34.70;38.40;;;31.87;44.33;96427.28;4949297;28;20051;-74
2021/08/12 09:50:42;;;;;;;13.27;8.38;;;35.10;37.70;;;32.01;46.24;96425.22;4952609;28;20023;-77
2021/08/12 09:53:15;;;;;;;11.50;9.10;;;35.00;38.70;;;32.08;44.62;96424.75;4952942;28;20414;-74
2021/08/12 09:55:41;;;;;;;8.70;6.93;;;35.10;37.70;;;32.21;44.23;96418.34;4943285;28;20040;-73
2021/08/12 09:58:08;;;;;;;10.02;6.60;;;35.50;37.10;;;32.51;43.88;96424.78;4945186;28;20046;-75
2021/08/12 10:00:39;;;;;;;9.35;6.28;;;36.20;36.70;;;32.85;42.75;96430.22;4957970;28;20035;-75
2021/08/12 10:03:22;;;;;;;7.88;6.10;;;36.80;36.20;;;33.17;42.01;96425.31;4958147;28;20035;-74
2021/08/12 10:05:48;;;;;;;10.52;6.10;;;37.30;34.40;;;33.36;43.31;96430.41;4943611;28;20066;-75
2021/08/12 10:08:27;;;;;;;7.45;5.95;;;37.40;34.00;;;33.62;39.86;96424.81;4958356;28;21718;-74
2021/08/12 10:10:54;;;;;;;12.47;5.97;;;37.80;32.60;;;33.84;42.02;96421.81;4949156;28;20032;-73
2021/08/12 10:13:20;;;;;;;14.30;7.00;;;38.20;33.10;;;34.13;42.38;96420.19;4918221;29;20287;-73
2021/08/12 10:15:49;;;;;;;21.25;7.35;;;38.60;32.20;;;34.41;41.40;96421.28;4986390;28;20059;-73